createdAt,value
2022-08-10T00:01:22.771Z,14.30
2022-08-10T00:03:59.332Z,14.20
2022-08-10T00:06:35.530Z,14.20
2022-08-10T00:09:11.453Z,14.20
2022-08-10T00:11:47.465Z,14.10
2022-08-10T00:14:23.898Z,14.10
2022-08-10T00:17:00.310Z,14.00
2022-08-10T00:20:03.415Z,14.00
2022-08-10T00:22:32.834Z,13.90
2022-08-10T00:25:10.990Z,13.90
2022-08-10T00:28:01.679Z,13.90
2022-08-10T00:30:40.901Z,13.80
2022-08-10T00:33:17.109Z,13.80
2022-08-10T00:35:53.569Z,13.70
2022-08-10T00:38:29.627Z,13.70
2022-08-10T00:41:05.875Z,13.60
2022-08-10T00:43:41.945Z,13.60
2022-08-10T00:46:18.039Z,13.60
2022-08-10T00:49:00.589Z,13.60
2022-08-10T00:51:44.364Z,13.50
2022-08-10T00:54:25.222Z,13.50
2022-08-10T00:57:17.720Z,13.40
2022-08-10T00:59:59.505Z,13.40
2022-08-10T01:02:37.304Z,13.40
2022-08-10T01:05:18.020Z,13.30
2022-08-10T01:08:37.637Z,13.30
2022-08-10T01:12:27.663Z,13.20
2022-08-10T01:14:30.313Z,13.20
2022-08-10T01:17:16.429Z,13.10
2022-08-10T01:20:10.393Z,13.10
2022-08-10T01:24:08.357Z,13.00
2022-08-10T01:27:08.518Z,13.00
2022-08-10T01:29:59.457Z,12.90
2022-08-10T01:32:51.480Z,12.90
2022-08-10T01:35:36.432Z,12.80
2022-08-10T01:38:18.965Z,12.80
2022-08-10T01:41:03.081Z,12.80
2022-08-10T01:43:44.112Z,12.80
2022-08-10T01:46:23.596Z,12.70
2022-08-10T01:49:03.916Z,12.70
2022-08-10T01:51:47.766Z,12.60
2022-08-10T01:54:28.270Z,12.60
2022-08-10T01:57:08.792Z,12.50
2022-08-10T01:59:58.715Z,12.50
2022-08-10T02:02:44.346Z,12.50
2022-08-10T02:05:23.223Z,12.40
2022-08-10T02:08:02.118Z,12.40
2022-08-10T02:10:41.661Z,12.40
2022-08-10T02:13:21.603Z,12.38
2022-08-10T02:16:02.672Z,12.30
2022-08-10T02:18:41.527Z,12.30
2022-08-10T02:21:20.186Z,12.20
2022-08-10T02:23:59.612Z,12.20
2022-08-10T02:26:38.021Z,12.20
2022-08-10T02:29:18.576Z,12.10
2022-08-10T02:31:56.956Z,12.10
2022-08-10T02:34:34.387Z,12.02
2022-08-10T02:37:13.804Z,12.00
2022-08-10T02:39:49.995Z,11.90
2022-08-10T02:45:21.833Z,11.90
2022-08-10T02:45:42.867Z,11.80
2022-08-10T02:48:29.103Z,11.80
2022-08-10T02:51:16.639Z,11.70
2022-08-10T02:54:00.906Z,11.70
2022-08-10T02:56:44.548Z,11.70
2022-08-10T02:59:40.108Z,11.70
2022-08-10T03:02:28.323Z,11.70
2022-08-10T03:05:10.513Z,11.60
2022-08-10T03:07:55.121Z,11.60
2022-08-10T03:10:39.752Z,11.60
2022-08-10T03:13:19.205Z,11.60
2022-08-10T03:15:57.635Z,11.52
2022-08-10T03:18:36.508Z,11.50
2022-08-10T03:21:14.512Z,11.50
2022-08-10T03:23:53.024Z,11.50
2022-08-10T03:26:30.338Z,11.50
2022-08-10T03:29:09.711Z,11.50
2022-08-10T03:31:47.133Z,11.50
2022-08-10T03:34:32.954Z,11.52
2022-08-10T03:37:10.727Z,11.60
2022-08-10T03:39:46.933Z,11.60
2022-08-10T03:42:27.742Z,11.60
2022-08-10T03:45:09.047Z,11.70
2022-08-10T03:47:47.894Z,11.70
2022-08-10T03:50:45.602Z,11.80
2022-08-10T03:53:25.693Z,11.80
2022-08-10T03:56:28.499Z,11.90
2022-08-10T03:59:10.018Z,12.00
2022-08-10T04:02:44.652Z,12.20
2022-08-10T04:04:44.593Z,12.40
2022-08-10T04:07:21.765Z,12.70
2022-08-10T04:09:58.891Z,13.28
2022-08-10T04:12:35.182Z,13.86
2022-08-10T04:15:13.825Z,14.50
2022-08-10T04:18:00.221Z,15.14
2022-08-10T04:20:51.644Z,15.86
2022-08-10T04:23:33.259Z,16.54
2022-08-10T04:26:10.172Z,17.18
2022-08-10T04:28:49.054Z,17.74
2022-08-10T04:31:28.763Z,18.34
2022-08-10T04:34:08.740Z,18.96
2022-08-10T04:36:46.994Z,19.52
2022-08-10T04:39:23.662Z,20.10
2022-08-10T04:42:00.192Z,20.64
2022-08-10T04:44:37.896Z,21.04
2022-08-10T04:47:16.773Z,21.46
2022-08-10T04:50:12.213Z,21.92
2022-08-10T04:52:49.048Z,22.30
2022-08-10T04:55:25.564Z,22.70
2022-08-10T04:58:01.517Z,22.94
2022-08-10T05:00:37.999Z,23.30
2022-08-10T05:03:14.295Z,23.60
2022-08-10T05:05:50.455Z,23.90
2022-08-10T05:08:29.021Z,24.20
2022-08-10T05:11:05.077Z,24.50
2022-08-10T05:13:40.979Z,24.78
2022-08-10T05:16:18.574Z,25.10
2022-08-10T05:19:06.918Z,25.46
2022-08-10T05:21:56.406Z,25.80
2022-08-10T05:24:40.238Z,26.04
2022-08-10T05:27:16.509Z,26.30
2022-08-10T05:30:01.564Z,26.56
2022-08-10T05:32:57.194Z,26.86
2022-08-10T05:35:56.304Z,27.02
2022-08-10T05:38:34.812Z,27.10
2022-08-10T05:41:11.146Z,27.20
2022-08-10T05:43:47.981Z,27.40
2022-08-10T05:46:23.951Z,27.70
2022-08-10T05:49:01.493Z,27.70
2022-08-10T05:51:38.240Z,27.94
2022-08-10T05:54:17.803Z,28.24
2022-08-10T05:56:58.366Z,28.46
2022-08-10T06:00:29.450Z,28.60
2022-08-10T06:02:41.984Z,28.80
2022-08-10T06:05:24.717Z,29.00
2022-08-10T06:08:05.547Z,29.32
2022-08-10T06:12:24.725Z,29.50
2022-08-10T06:14:13.440Z,29.68
2022-08-10T06:16:52.809Z,29.80
2022-08-10T06:19:30.628Z,29.80
2022-08-10T06:22:07.672Z,29.90
2022-08-10T06:25:12.220Z,30.10
2022-08-10T06:27:43.286Z,30.20
2022-08-10T06:30:21.320Z,30.34
2022-08-10T06:33:01.381Z,30.50
2022-08-10T06:35:40.490Z,30.70
2022-08-10T06:38:18.417Z,30.88
2022-08-10T06:40:58.781Z,31.04
2022-08-10T06:43:37.845Z,31.10
2022-08-10T06:46:20.999Z,31.00
2022-08-10T06:49:02.909Z,31.00
2022-08-10T06:51:44.155Z,31.00
2022-08-10T06:54:36.653Z,30.90
2022-08-10T06:57:18.190Z,30.96
2022-08-10T06:59:57.907Z,31.14
2022-08-10T07:02:46.569Z,31.20
2022-08-10T07:05:29.682Z,31.14
2022-08-10T07:08:08.754Z,31.12
2022-08-10T07:10:47.510Z,31.20
2022-08-10T07:14:14.146Z,31.20
2022-08-10T07:16:22.786Z,31.10
2022-08-10T07:19:01.525Z,30.80
2022-08-10T07:21:39.044Z,30.76
2022-08-10T07:24:18.811Z,30.70
2022-08-10T07:26:58.738Z,30.82
2022-08-10T07:29:54.441Z,31.00
2022-08-10T07:32:34.743Z,31.20
2022-08-10T07:35:16.532Z,31.26
2022-08-10T07:37:55.401Z,31.20
2022-08-10T07:40:32.421Z,31.20
2022-08-10T07:43:11.228Z,31.14
2022-08-10T07:45:49.575Z,30.94
2022-08-10T07:48:35.221Z,31.00
2022-08-10T07:51:14.075Z,30.90
2022-08-10T07:53:57.783Z,30.64
2022-08-10T07:56:49.056Z,30.40
2022-08-10T07:59:38.009Z,30.10
2022-08-10T08:02:25.140Z,30.14
2022-08-10T08:05:07.653Z,30.20
2022-08-10T08:07:47.371Z,30.10
2022-08-10T08:10:25.870Z,29.90
2022-08-10T08:13:03.906Z,30.00
2022-08-10T08:16:16.878Z,29.90
2022-08-10T08:18:42.001Z,29.78
2022-08-10T08:24:05.156Z,29.30
2022-08-10T08:24:34.409Z,29.10
2022-08-10T08:27:15.417Z,29.10
2022-08-10T08:29:54.182Z,29.00
2022-08-10T08:32:36.826Z,29.00
2022-08-10T08:35:19.435Z,28.78
2022-08-10T08:38:32.297Z,28.72
2022-08-10T08:41:08.903Z,28.72
2022-08-10T08:44:09.812Z,28.60
2022-08-10T08:48:04.466Z,28.60
2022-08-10T08:51:01.704Z,28.40
2022-08-10T08:54:07.712Z,28.40
2022-08-10T08:57:00.404Z,28.10
2022-08-10T09:00:07.170Z,28.10
2022-08-10T09:03:18.676Z,27.80
2022-08-10T09:06:14.447Z,27.28
2022-08-10T09:09:38.018Z,27.00
2022-08-10T09:12:39.993Z,26.70
2022-08-10T09:15:40.544Z,26.50
2022-08-10T09:18:30.166Z,26.16
2022-08-10T09:21:17.186Z,25.78
2022-08-10T09:24:06.168Z,25.58
2022-08-10T09:26:50.772Z,25.40
2022-08-10T09:29:34.642Z,25.40
2022-08-10T09:36:16.775Z,25.50
2022-08-10T09:36:24.402Z,25.70
2022-08-10T09:38:47.355Z,25.50
2022-08-10T09:41:43.093Z,25.30
2022-08-10T09:44:58.500Z,25.00
2022-08-10T09:48:08.103Z,24.90
2022-08-10T09:54:16.317Z,25.10
2022-08-10T09:57:44.251Z,25.10
2022-08-10T10:00:21.494Z,25.10
2022-08-10T10:03:17.292Z,25.10
2022-08-10T10:06:10.031Z,25.24
2022-08-10T10:09:10.552Z,25.30
2022-08-10T10:12:10.068Z,25.40
2022-08-10T10:15:24.959Z,25.50
2022-08-10T10:18:40.483Z,25.70
2022-08-10T10:21:55.168Z,25.70
2022-08-10T10:24:44.009Z,25.60
2022-08-10T10:27:38.558Z,25.60
2022-08-10T10:30:18.435Z,25.40
2022-08-10T10:33:13.284Z,25.08
2022-08-10T10:35:59.373Z,25.00
2022-08-10T10:38:43.565Z,25.00
2022-08-10T10:41:55.912Z,25.00
2022-08-10T10:44:50.544Z,25.04
2022-08-10T10:48:00.428Z,25.10
2022-08-10T10:50:56.809Z,25.30
2022-08-10T10:53:47.182Z,25.34
2022-08-10T10:56:50.421Z,25.40
2022-08-10T10:59:54.936Z,25.38
2022-08-10T11:03:01.202Z,25.48
2022-08-10T11:05:49.160Z,25.60
2022-08-10T11:08:34.957Z,25.70
2022-08-10T11:12:00.593Z,25.70
2022-08-10T11:14:29.500Z,25.60
2022-08-10T11:17:16.888Z,25.80
2022-08-10T11:20:13.896Z,25.90
2022-08-10T11:23:04.017Z,26.00
2022-08-10T11:25:52.694Z,26.10
2022-08-10T11:28:44.492Z,26.00
2022-08-10T11:31:35.064Z,25.90
2022-08-10T11:34:49.086Z,25.90
2022-08-10T11:38:31.195Z,26.00
2022-08-10T11:40:45.151Z,26.10
2022-08-10T11:43:27.361Z,26.10
2022-08-10T11:46:28.213Z,25.96
2022-08-10T11:49:13.513Z,25.80
2022-08-10T11:51:58.746Z,25.66
2022-08-10T11:54:44.999Z,25.50
2022-08-10T11:57:54.183Z,25.50
2022-08-10T12:00:32.688Z,25.60
2022-08-10T12:03:11.923Z,25.70
2022-08-10T12:05:54.166Z,25.88
2022-08-10T12:10:02.461Z,26.00
2022-08-10T12:11:32.873Z,26.00
2022-08-10T12:14:21.907Z,25.90
2022-08-10T12:17:08.042Z,25.80
2022-08-10T12:20:02.759Z,25.60
2022-08-10T12:22:56.834Z,25.50
2022-08-10T12:25:54.846Z,25.42
2022-08-10T12:28:50.151Z,25.50
2022-08-10T12:31:41.456Z,25.42
2022-08-10T12:34:31.856Z,25.30
2022-08-10T12:37:29.416Z,25.10
2022-08-10T12:40:34.579Z,24.86
2022-08-10T12:44:07.842Z,24.60
2022-08-10T12:46:30.765Z,24.54
2022-08-10T12:49:17.454Z,24.60
2022-08-10T12:52:04.247Z,24.74
2022-08-10T12:54:43.016Z,24.90
2022-08-10T12:57:25.389Z,25.02
2022-08-10T13:00:06.203Z,25.20
2022-08-10T13:02:54.494Z,25.30
2022-08-10T13:05:54.774Z,25.40
2022-08-10T13:08:50.452Z,25.60
2022-08-10T13:12:37.097Z,25.72
2022-08-10T13:14:38.580Z,25.90
2022-08-10T13:17:22.399Z,26.10
2022-08-10T13:20:13.029Z,26.20
2022-08-10T13:22:54.763Z,26.26
2022-08-10T13:25:37.619Z,26.12
2022-08-10T13:28:35.986Z,25.90
2022-08-10T13:31:21.789Z,25.60
2022-08-10T13:34:43.807Z,25.40
2022-08-10T13:37:34.413Z,25.20
2022-08-10T13:40:20.887Z,25.10
2022-08-10T13:42:59.708Z,25.20
2022-08-10T13:45:43.023Z,25.20
2022-08-10T13:48:26.309Z,25.20
2022-08-10T13:51:05.168Z,25.20
2022-08-10T13:53:41.951Z,25.20
2022-08-10T13:56:20.072Z,25.20
2022-08-10T13:58:58.928Z,25.20
2022-08-10T14:01:37.180Z,25.22
2022-08-10T14:04:16.495Z,25.32
2022-08-10T14:07:02.460Z,25.40
2022-08-10T14:09:39.530Z,25.50
2022-08-10T14:12:17.802Z,25.40
2022-08-10T14:14:57.920Z,25.40
2022-08-10T14:17:37.173Z,25.40
2022-08-10T14:20:21.329Z,25.36
2022-08-10T14:23:05.820Z,25.30
2022-08-10T14:26:04.085Z,25.26
2022-08-10T14:28:46.985Z,25.14
2022-08-10T14:31:30.957Z,25.00
2022-08-10T14:34:10.349Z,24.92
2022-08-10T14:36:55.655Z,24.90
2022-08-10T14:39:42.415Z,24.92
2022-08-10T14:42:27.986Z,25.00
2022-08-10T14:45:13.154Z,25.00
2022-08-10T14:47:59.501Z,25.00
2022-08-10T14:50:38.806Z,25.00
2022-08-10T14:53:37.758Z,25.10
2022-08-10T14:56:19.482Z,25.10
2022-08-10T14:59:06.928Z,25.00
2022-08-10T15:02:38.925Z,24.90
2022-08-10T15:04:46.319Z,24.70
2022-08-10T15:07:33.370Z,24.60
2022-08-10T15:10:11.922Z,24.50
2022-08-10T15:12:50.546Z,24.50
2022-08-10T15:15:49.926Z,24.40
2022-08-10T15:18:37.195Z,24.20
2022-08-10T15:21:17.048Z,24.10
2022-08-10T15:24:05.178Z,24.00
2022-08-10T15:26:57.290Z,23.90
2022-08-10T15:29:36.176Z,24.00
2022-08-10T15:33:04.963Z,24.10
2022-08-10T15:36:04.951Z,24.10
2022-08-10T15:38:45.376Z,24.20
2022-08-10T15:41:57.816Z,24.22
2022-08-10T15:44:47.546Z,24.30
2022-08-10T15:47:46.143Z,24.32
2022-08-10T15:50:32.816Z,24.40
2022-08-10T15:53:27.704Z,24.40
2022-08-10T15:56:15.073Z,24.50
2022-08-10T15:58:59.334Z,24.50
2022-08-10T16:02:13.419Z,24.48
2022-08-10T16:05:05.981Z,24.40
2022-08-10T16:07:51.673Z,24.40
2022-08-10T16:10:53.511Z,24.30
2022-08-10T16:13:59.871Z,24.22
2022-08-10T16:16:40.374Z,24.12
2022-08-10T16:19:24.240Z,24.10
2022-08-10T16:22:36.574Z,24.00
2022-08-10T16:25:16.615Z,23.90
2022-08-10T16:27:52.982Z,23.90
2022-08-10T16:30:40.574Z,23.80
2022-08-10T16:33:23.119Z,23.80
2022-08-10T16:36:05.530Z,23.74
2022-08-10T16:38:48.889Z,23.70
2022-08-10T16:42:05.060Z,23.66
2022-08-10T16:44:41.665Z,23.60
2022-08-10T16:47:20.215Z,23.60
2022-08-10T16:50:02.099Z,23.50
2022-08-10T16:52:39.934Z,23.50
2022-08-10T16:55:24.567Z,23.40
2022-08-10T16:58:25.116Z,23.34
2022-08-10T17:01:09.429Z,23.30
2022-08-10T17:04:06.325Z,23.20
2022-08-10T17:06:56.465Z,23.14
2022-08-10T17:09:37.178Z,23.10
2022-08-10T17:12:17.422Z,23.00
2022-08-10T17:15:09.194Z,22.90
2022-08-10T17:17:52.150Z,22.86
2022-08-10T17:20:33.295Z,22.80
2022-08-10T17:23:15.043Z,22.70
2022-08-10T17:25:53.523Z,22.60
2022-08-10T17:28:34.723Z,22.50
2022-08-10T17:31:53.863Z,22.40
2022-08-10T17:34:25.929Z,22.30
2022-08-10T17:37:11.982Z,22.20
2022-08-10T17:39:57.430Z,22.10
2022-08-10T17:42:36.535Z,22.00
2022-08-10T17:45:48.773Z,21.90
2022-08-10T17:48:25.529Z,21.80
2022-08-10T17:51:03.885Z,21.68
2022-08-10T17:53:51.266Z,21.54
2022-08-10T17:56:32.945Z,21.40
2022-08-10T17:59:17.284Z,21.30
2022-08-10T18:02:02.325Z,21.20
2022-08-10T18:04:42.610Z,21.10
2022-08-10T18:07:23.380Z,21.00
2022-08-10T18:10:02.185Z,20.84
2022-08-10T18:12:50.066Z,20.72
2022-08-10T18:15:32.471Z,20.60
2022-08-10T18:18:16.722Z,20.50
2022-08-10T18:21:07.472Z,20.40
2022-08-10T18:23:52.723Z,20.30
2022-08-10T18:26:35.192Z,20.18
2022-08-10T18:29:20.951Z,20.00
2022-08-10T18:32:07.250Z,19.90
2022-08-10T18:34:47.542Z,19.80
2022-08-10T18:37:30.237Z,19.72
2022-08-10T18:40:11.397Z,19.68
2022-08-10T18:42:58.481Z,19.60
2022-08-10T18:45:42.738Z,19.50
2022-08-10T18:48:26.131Z,19.40
2022-08-10T18:51:06.483Z,19.30
2022-08-10T18:53:51.682Z,19.30
2022-08-10T18:56:53.265Z,19.20
2022-08-10T19:00:07.911Z,19.10
2022-08-10T19:03:47.359Z,19.00
2022-08-10T19:07:06.101Z,18.90
2022-08-10T19:10:15.529Z,18.86
2022-08-10T19:13:04.160Z,18.80
2022-08-10T19:15:54.775Z,18.70
2022-08-10T19:18:48.842Z,18.60
2022-08-10T19:21:36.075Z,18.50
2022-08-10T19:24:26.194Z,18.50
2022-08-10T19:27:14.671Z,18.40
2022-08-10T19:30:11.055Z,18.30
2022-08-10T19:33:24.536Z,18.30
2022-08-10T19:36:18.651Z,18.20
2022-08-10T19:39:18.183Z,18.20
2022-08-10T19:42:11.679Z,18.18
2022-08-10T19:46:01.731Z,18.10
2022-08-10T19:48:27.929Z,18.10
2022-08-10T19:51:14.946Z,18.00
2022-08-10T19:54:10.404Z,18.00
2022-08-10T19:57:12.225Z,18.00
2022-08-10T20:00:18.993Z,17.90
2022-08-10T20:03:16.578Z,17.90
2022-08-10T20:06:18.603Z,17.90
2022-08-10T20:09:06.572Z,17.90
2022-08-10T20:11:55.884Z,17.88
2022-08-10T20:14:43.150Z,17.82
2022-08-10T20:17:51.676Z,17.80
2022-08-10T20:20:36.375Z,17.80
2022-08-10T20:23:23.305Z,17.76
2022-08-10T20:26:09.526Z,17.70
2022-08-10T20:28:58.088Z,17.70
2022-08-10T20:31:47.480Z,17.70
2022-08-10T20:34:29.082Z,17.60
2022-08-10T20:37:41.292Z,17.58
2022-08-10T20:40:24.683Z,17.50
2022-08-10T20:43:19.928Z,17.40
2022-08-10T20:46:12.353Z,17.40
2022-08-10T20:49:01.092Z,17.30
2022-08-10T20:51:57.883Z,17.30
2022-08-10T20:54:43.460Z,17.28
2022-08-10T20:57:55.523Z,17.20
2022-08-10T21:01:01.234Z,17.20
2022-08-10T21:04:14.608Z,17.18
2022-08-10T21:07:50.679Z,17.10
2022-08-10T21:10:49.174Z,17.10
2022-08-10T21:13:59.132Z,17.10
2022-08-10T21:17:15.277Z,17.10
2022-08-10T21:20:31.067Z,17.00
2022-08-10T21:23:10.637Z,17.00
2022-08-10T21:26:08.096Z,17.00
2022-08-10T21:29:20.478Z,17.00
2022-08-10T21:32:32.956Z,17.00
2022-08-10T21:35:37.646Z,17.00
2022-08-10T21:38:28.472Z,17.00
2022-08-10T21:41:57.372Z,17.00
2022-08-10T21:45:38.568Z,17.00
2022-08-10T21:49:02.537Z,17.10
2022-08-10T21:52:07.288Z,17.10
2022-08-10T21:55:16.878Z,17.12
2022-08-10T21:58:22.515Z,17.20
2022-08-10T22:01:39.807Z,17.20
2022-08-10T22:04:35.360Z,17.24
2022-08-10T22:10:51.134Z,17.28
2022-08-10T22:13:47.587Z,17.30
2022-08-10T22:17:01.631Z,17.28
2022-08-10T22:20:02.793Z,17.24
2022-08-10T22:23:19.141Z,17.20
2022-08-10T22:26:29.301Z,17.20
2022-08-10T22:31:27.617Z,17.20
2022-08-10T22:31:27.655Z,17.24
2022-08-10T22:33:09.488Z,17.20
2022-08-10T22:36:36.918Z,17.20
2022-08-10T22:40:14.264Z,17.20
2022-08-10T22:43:12.477Z,17.20
2022-08-10T22:46:17.694Z,17.20
2022-08-10T22:49:02.084Z,17.20
2022-08-10T22:51:55.700Z,17.22
2022-08-10T22:55:06.788Z,17.20
2022-08-10T22:58:08.606Z,17.20
2022-08-10T23:00:58.548Z,17.20
2022-08-10T23:03:43.550Z,17.14
2022-08-10T23:06:27.621Z,17.10
2022-08-10T23:09:07.842Z,17.10
2022-08-10T23:11:50.220Z,17.00
2022-08-10T23:14:34.512Z,17.00
2022-08-10T23:18:01.875Z,16.94
2022-08-10T23:20:38.844Z,16.90
2022-08-10T23:23:24.379Z,16.80
2022-08-10T23:26:04.552Z,16.70
2022-08-10T23:28:58.509Z,16.62
2022-08-10T23:32:01.241Z,16.50
2022-08-10T23:34:44.046Z,16.40
2022-08-10T23:37:21.492Z,16.40
2022-08-10T23:40:00.275Z,16.30
2022-08-10T23:42:45.331Z,16.20
2022-08-10T23:45:53.568Z,16.10
2022-08-10T23:48:34.583Z,16.00
2022-08-10T23:51:16.529Z,15.90
2022-08-10T23:53:54.817Z,15.88
2022-08-10T23:56:32.270Z,15.80
2022-08-10T23:59:16.221Z,15.70
